MDT,Max TemperatureF,Mean TemperatureF,Min TemperatureF,Max Dew PointF,MeanDew PointF,Min DewpointF,Max Humidity, Mean Humidity, Min Humidity, Max Sea Level PressureIn, Mean Sea Level PressureIn, Min Sea Level PressureIn, Max VisibilityMiles, Mean VisibilityMiles, Min VisibilityMiles, Max Wind SpeedMPH, Mean Wind SpeedMPH, Max Gust SpeedMPH,PrecipitationIn, CloudCover, Events, WindDirDegrees
2013-6-1,70,57,43,41,39,37,71,52,32,30.17,30.03,29.89,10,10,10,38,19,45,0.00,2,,350
2013-6-2,81,60,39,45,40,35,86,54,21,30.17,30.00,29.82,10,10,10,29,13,36,0.00,0,,165
2013-6-3,97,74,51,55,44,23,77,42,7,29.80,29.63,29.50,10,10,10,32,19,39,0.00,0,,154
2013-6-4,75,64,52,60,56,52,93,70,46,30.10,29.89,29.65,10,10,10,25,12,30,0.09,5,Rain,40
2013-6-5,58,53,48,54,49,45,93,80,67,30.20,30.11,29.97,10,10,10,22,10,28,0.07,7,Rain,12
2013-6-6,77,60,43,49,46,42,93,62,31,30.11,30.02,29.93,10,10,10,14,5,18,0.00,1,,158
2013-6-7,83,65,46,57,49,45,93,60,26,30.05,29.89,29.72,10,9,2,37,8,49,0.71,2,Rain-Thunderstorm,169
2013-6-8,78,66,53,55,51,43,78,55,31,29.91,29.72,29.58,10,10,10,39,15,48,T,2,Rain-Thunderstorm,12
2013-6-9,89,69,49,53,46,40,93,56,18,29.94,29.87,29.79,10,10,10,15,8,20,0.00,0,,249
2013-6-10,104,79,53,56,45,32,72,41,9,29.83,29.70,29.62,10,10,10,16,9,21,0.00,0,,169
2013-6-11,107,87,67,62,40,21,64,35,5,29.73,29.58,29.47,10,10,10,28,12,33,0.00,0,,246
2013-6-12,94,78,61,60,53,41,84,51,17,30.01,29.88,29.68,10,10,10,25,12,31,0.00,0,,22
2013-6-13,96,76,55,62,53,45,83,56,28,30.17,29.96,29.80,10,10,4,41,15,52,0.04,2,Rain-Thunderstorm,126
2013-6-14,95,79,63,61,50,39,78,49,19,29.97,29.82,29.73,10,10,10,29,14,41,0.03,2,Rain-Thunderstorm,205
2013-6-15,91,74,57,58,53,49,78,51,24,30.05,29.86,29.78,10,10,7,47,7,60,0.41,1,Rain-Thunderstorm,129
2013-6-16,90,74,57,64,57,53,90,61,32,30.05,29.94,29.82,10,9,1,32,11,49,1.04,2,Rain-Thunderstorm,156
2013-6-17,80,67,54,59,56,45,100,67,33,30.13,30.04,29.94,10,7,1,30,7,38,T,2,,173
2013-6-18,87,72,56,58,55,51,93,63,32,30.10,29.98,29.84,10,9,2,39,12,53,0.65,2,Rain-Thunderstorm,190
2013-6-19,83,71,58,63,60,55,93,70,47,29.89,29.79,29.69,10,10,10,33,21,39,0.00,2,,169
2013-6-20,96,80,63,64,57,43,90,53,16,29.80,29.68,29.62,10,10,10,28,15,37,0.00,0,Thunderstorm,181
2013-6-21,97,83,68,62,51,35,64,38,12,29.77,29.65,29.57,10,10,9,33,18,43,0.00,1,,186
2013-6-22,90,74,58,64,59,51,84,57,29,29.80,29.65,29.58,10,10,10,28,12,35,0.00,1,,217
2013-6-23,87,74,61,63,55,49,73,53,32,29.90,29.78,29.68,10,10,10,32,13,45,T,0,Thunderstorm,56
2013-6-24,95,78,60,62,51,23,84,46,7,29.85,29.68,29.56,10,10,10,28,14,38,0.00,1,,166
2013-6-25,95,79,62,63,49,35,78,46,13,29.80,29.67,29.53,10,10,10,24,11,32,0.00,1,,298
2013-6-26,99,79,58,56,48,41,65,41,16,29.88,29.84,29.79,10,10,10,17,8,22,0.00,0,,157
2013-6-27,95,81,67,62,58,51,76,51,26,30.07,29.93,29.84,10,10,10,28,15,33,0.00,0,,16
2013-6-28,97,80,63,65,53,45,93,56,19,30.09,30.03,29.95,10,10,10,21,7,25,0.00,0,,119
2013-6-29,91,75,58,54,52,49,78,51,24,30.20,30.02,29.93,10,10,10,21,7,32,0.00,2,Thunderstorm,42
2013-6-30,82,68,54,51,48,46,77,54,30,30.14,30.08,30.05,10,10,10,18,6,24,0.00,3,,76